Аэропорт: Сургут. Сургут

ICAO: USRR

METAR:
2020-10-19 15:00:00
USRR 191500Z 21003MPS 180V240 4100 -SN BKN004 OVC014 00/00 Q1004 R25/450237 NOSIG RMK OBST OBSC QFE747
METAR:
2020-10-19 13:55:00
TAF USRR 191355Z 1915/2015 16006G13MPS 3100 -SN BKN005 OVC016 TEMPO 1915/1921 0800 +SHSN BKN003 BKN015CB TEMPO 1921/2003 0200 FG VV001